sensor_id;sensor_type;location;lat;lon;timestamp;P1;durP1;ratioP1;P2;durP2;ratioP2
39400;SDS011;54391;50.000;7.360;2023-08-24T00:01:11;7.10;;;2.95;;
39400;SDS011;54391;50.000;7.360;2023-08-24T00:03:40;5.40;;;2.78;;
39400;SDS011;54391;50.000;7.360;2023-08-24T00:06:08;4.53;;;2.65;;
39400;SDS011;54391;50.000;7.360;2023-08-24T00:08:35;4.20;;;2.80;;
39400;SDS011;54391;50.000;7.360;2023-08-24T00:11:03;6.43;;;3.15;;
39400;SDS011;54391;50.000;7.360;2023-08-24T00:13:30;7.15;;;3.10;;
39400;SDS011;54391;50.000;7.360;2023-08-24T00:15:58;5.22;;;2.70;;
39400;SDS011;54391;50.000;7.360;2023-08-24T00:18:25;6.22;;;2.80;;
39400;SDS011;54391;50.000;7.360;2023-08-24T00:20:54;6.15;;;3.40;;
39400;SDS011;54391;50.000;7.360;2023-08-24T00:23:21;4.85;;;2.90;;
39400;SDS011;54391;50.000;7.360;2023-08-24T00:25:48;5.15;;;2.65;;
39400;SDS011;54391;50.000;7.360;2023-08-24T00:28:15;5.90;;;2.90;;
39400;SDS011;54391;50.000;7.360;2023-08-24T00:30:43;5.43;;;2.53;;
39400;SDS011;54391;50.000;7.360;2023-08-24T00:33:10;5.50;;;2.83;;
39400;SDS011;54391;50.000;7.360;2023-08-24T00:35:37;5.55;;;2.63;;
39400;SDS011;54391;50.000;7.360;2023-08-24T00:38:06;5.13;;;2.80;;
39400;SDS011;54391;50.000;7.360;2023-08-24T00:40:33;5.90;;;2.58;;
39400;SDS011;54391;50.000;7.360;2023-08-24T00:43:01;4.80;;;2.55;;
39400;SDS011;54391;50.000;7.360;2023-08-24T00:45:30;7.30;;;2.50;;
39400;SDS011;54391;50.000;7.360;2023-08-24T00:47:59;5.88;;;2.70;;
39400;SDS011;54391;50.000;7.360;2023-08-24T00:50:28;4.45;;;2.42;;
39400;SDS011;54391;50.000;7.360;2023-08-24T00:52:55;5.47;;;2.67;;
39400;SDS011;54391;50.000;7.360;2023-08-24T00:55:24;5.32;;;2.40;;
39400;SDS011;54391;50.000;7.360;2023-08-24T00:57:52;5.40;;;2.40;;
39400;SDS011;54391;50.000;7.360;2023-08-24T01:00:20;6.38;;;2.75;;
39400;SDS011;54391;50.000;7.360;2023-08-24T01:02:48;4.03;;;2.45;;
39400;SDS011;54391;50.000;7.360;2023-08-24T01:05:16;4.43;;;2.50;;
39400;SDS011;54391;50.000;7.360;2023-08-24T01:07:43;9.52;;;2.65;;
39400;SDS011;54391;50.000;7.360;2023-08-24T01:10:11;5.82;;;2.35;;
39400;SDS011;54391;50.000;7.360;2023-08-24T01:12:45;6.38;;;2.58;;
39400;SDS011;54391;50.000;7.360;2023-08-24T01:15:25;4.47;;;2.75;;
39400;SDS011;54391;50.000;7.360;2023-08-24T01:17:58;6.88;;;2.25;;
39400;SDS011;54391;50.000;7.360;2023-08-24T01:20:30;7.22;;;2.55;;
39400;SDS011;54391;50.000;7.360;2023-08-24T01:23:04;5.93;;;2.80;;
39400;SDS011;54391;50.000;7.360;2023-08-24T01:25:42;4.53;;;2.58;;
39400;SDS011;54391;50.000;7.360;2023-08-24T01:28:15;4.78;;;2.33;;
39400;SDS011;54391;50.000;7.360;2023-08-24T01:30:44;4.82;;;3.03;;
39400;SDS011;54391;50.000;7.360;2023-08-24T01:33:11;4.63;;;2.58;;
39400;SDS011;54391;50.000;7.360;2023-08-24T01:35:39;5.95;;;2.45;;
39400;SDS011;54391;50.000;7.360;2023-08-24T01:38:07;4.90;;;2.75;;
39400;SDS011;54391;50.000;7.360;2023-08-24T01:40:41;6.03;;;2.58;;
39400;SDS011;54391;50.000;7.360;2023-08-24T01:43:16;5.20;;;2.78;;
39400;SDS011;54391;50.000;7.360;2023-08-24T01:45:46;4.60;;;2.50;;
39400;SDS011;54391;50.000;7.360;2023-08-24T01:48:18;6.13;;;2.47;;
39400;SDS011;54391;50.000;7.360;2023-08-24T01:50:46;4.57;;;2.50;;
39400;SDS011;54391;50.000;7.360;2023-08-24T01:53:14;3.97;;;2.15;;
39400;SDS011;54391;50.000;7.360;2023-08-24T01:55:41;3.25;;;2.30;;
39400;SDS011;54391;50.000;7.360;2023-08-24T01:58:11;4.05;;;2.35;;
39400;SDS011;54391;50.000;7.360;2023-08-24T02:00:39;4.18;;;2.42;;
39400;SDS011;54391;50.000;7.360;2023-08-24T02:03:06;6.63;;;2.50;;
39400;SDS011;54391;50.000;7.360;2023-08-24T02:05:34;4.32;;;2.30;;
39400;SDS011;54391;50.000;7.360;2023-08-24T02:08:01;6.38;;;2.53;;
39400;SDS011;54391;50.000;7.360;2023-08-24T02:10:29;6.97;;;2.67;;
39400;SDS011;54391;50.000;7.360;2023-08-24T02:12:56;6.82;;;2.45;;
39400;SDS011;54391;50.000;7.360;2023-08-24T02:15:23;3.38;;;2.10;;
39400;SDS011;54391;50.000;7.360;2023-08-24T02:17:52;3.33;;;2.22;;
39400;SDS011;54391;50.000;7.360;2023-08-24T02:20:19;7.35;;;2.50;;
39400;SDS011;54391;50.000;7.360;2023-08-24T02:22:46;6.40;;;2.45;;
39400;SDS011;54391;50.000;7.360;2023-08-24T02:25:13;7.18;;;2.78;;
39400;SDS011;54391;50.000;7.360;2023-08-24T02:27:41;3.90;;;2.28;;
39400;SDS011;54391;50.000;7.360;2023-08-24T02:30:08;6.78;;;2.78;;
39400;SDS011;54391;50.000;7.360;2023-08-24T02:32:36;6.15;;;2.67;;
39400;SDS011;54391;50.000;7.360;2023-08-24T02:35:06;5.22;;;2.17;;
39400;SDS011;54391;50.000;7.360;2023-08-24T02:37:34;6.05;;;2.85;;
39400;SDS011;54391;50.000;7.360;2023-08-24T02:40:01;4.43;;;2.63;;
39400;SDS011;54391;50.000;7.360;2023-08-24T02:42:30;5.30;;;2.30;;
39400;SDS011;54391;50.000;7.360;2023-08-24T02:44:58;4.22;;;2.45;;
39400;SDS011;54391;50.000;7.360;2023-08-24T02:47:25;7.05;;;2.30;;
39400;SDS011;54391;50.000;7.360;2023-08-24T02:49:52;3.92;;;2.60;;
39400;SDS011;54391;50.000;7.360;2023-08-24T02:52:21;6.28;;;2.78;;
39400;SDS011;54391;50.000;7.360;2023-08-24T02:54:49;4.28;;;2.78;;
39400;SDS011;54391;50.000;7.360;2023-08-24T02:57:16;5.35;;;2.60;;
39400;SDS011;54391;50.000;7.360;2023-08-24T02:59:43;4.20;;;2.25;;
39400;SDS011;54391;50.000;7.360;2023-08-24T03:02:10;4.45;;;2.78;;
39400;SDS011;54391;50.000;7.360;2023-08-24T03:04:38;3.78;;;2.60;;
39400;SDS011;54391;50.000;7.360;2023-08-24T03:07:05;6.07;;;2.80;;
39400;SDS011;54391;50.000;7.360;2023-08-24T03:09:37;6.55;;;2.65;;
39400;SDS011;54391;50.000;7.360;2023-08-24T03:12:04;4.72;;;2.58;;
39400;SDS011;54391;50.000;7.360;2023-08-24T03:14:32;6.32;;;2.35;;
39400;SDS011;54391;50.000;7.360;2023-08-24T03:16:59;4.47;;;2.80;;
39400;SDS011;54391;50.000;7.360;2023-08-24T03:19:32;4.53;;;2.60;;
39400;SDS011;54391;50.000;7.360;2023-08-24T03:22:00;5.40;;;2.30;;
39400;SDS011;54391;50.000;7.360;2023-08-24T03:24:27;4.05;;;2.42;;
39400;SDS011;54391;50.000;7.360;2023-08-24T03:26:56;4.75;;;2.55;;
39400;SDS011;54391;50.000;7.360;2023-08-24T03:29:24;4.05;;;2.47;;
39400;SDS011;54391;50.000;7.360;2023-08-24T03:31:52;5.43;;;2.80;;
39400;SDS011;54391;50.000;7.360;2023-08-24T03:34:19;3.67;;;2.20;;
39400;SDS011;54391;50.000;7.360;2023-08-24T03:36:47;4.25;;;2.28;;
39400;SDS011;54391;50.000;7.360;2023-08-24T03:39:14;3.63;;;2.30;;
39400;SDS011;54391;50.000;7.360;2023-08-24T03:41:43;3.85;;;2.38;;
39400;SDS011;54391;50.000;7.360;2023-08-24T03:44:11;3.75;;;2.20;;
39400;SDS011;54391;50.000;7.360;2023-08-24T03:46:39;5.57;;;2.33;;
39400;SDS011;54391;50.000;7.360;2023-08-24T03:49:06;4.82;;;2.08;;
39400;SDS011;54391;50.000;7.360;2023-08-24T03:51:34;6.22;;;2.35;;
39400;SDS011;54391;50.000;7.360;2023-08-24T03:54:01;6.35;;;2.85;;
39400;SDS011;54391;50.000;7.360;2023-08-24T03:56:30;5.82;;;2.55;;
39400;SDS011;54391;50.000;7.360;2023-08-24T03:58:58;4.00;;;1.98;;
39400;SDS011;54391;50.000;7.360;2023-08-24T04:01:27;3.70;;;2.28;;
39400;SDS011;54391;50.000;7.360;2023-08-24T04:03:54;4.70;;;2.50;;
39400;SDS011;54391;50.000;7.360;2023-08-24T04:06:22;4.88;;;2.45;;
39400;SDS011;54391;50.000;7.360;2023-08-24T04:08:50;6.13;;;2.58;;
39400;SDS011;54391;50.000;7.360;2023-08-24T04:11:17;10.38;;;3.58;;
39400;SDS011;54391;50.000;7.360;2023-08-24T04:13:45;7.50;;;2.88;;
39400;SDS011;54391;50.000;7.360;2023-08-24T04:16:13;6.03;;;3.00;;
39400;SDS011;54391;50.000;7.360;2023-08-24T04:18:41;6.43;;;2.95;;
39400;SDS011;54391;50.000;7.360;2023-08-24T04:21:08;4.63;;;2.75;;
39400;SDS011;54391;50.000;7.360;2023-08-24T04:23:35;4.60;;;2.75;;
39400;SDS011;54391;50.000;7.360;2023-08-24T04:26:03;6.00;;;3.22;;
39400;SDS011;54391;50.000;7.360;2023-08-24T04:28:32;4.68;;;2.72;;
39400;SDS011;54391;50.000;7.360;2023-08-24T04:30:59;5.05;;;2.90;;
39400;SDS011;54391;50.000;7.360;2023-08-24T04:33:26;5.93;;;3.08;;
39400;SDS011;54391;50.000;7.360;2023-08-24T04:35:55;7.28;;;3.10;;
39400;SDS011;54391;50.000;7.360;2023-08-24T04:38:22;5.45;;;3.00;;
39400;SDS011;54391;50.000;7.360;2023-08-24T04:40:50;7.03;;;3.15;;
39400;SDS011;54391;50.000;7.360;2023-08-24T04:43:18;6.55;;;3.10;;
39400;SDS011;54391;50.000;7.360;2023-08-24T04:45:46;6.70;;;3.33;;
39400;SDS011;54391;50.000;7.360;2023-08-24T04:48:14;4.00;;;3.15;;
39400;SDS011;54391;50.000;7.360;2023-08-24T04:50:41;7.45;;;3.63;;
39400;SDS011;54391;50.000;7.360;2023-08-24T04:53:11;5.90;;;3.40;;
39400;SDS011;54391;50.000;7.360;2023-08-24T04:55:39;5.75;;;3.00;;
39400;SDS011;54391;50.000;7.360;2023-08-24T04:58:07;6.30;;;3.38;;
39400;SDS011;54391;50.000;7.360;2023-08-24T05:00:35;7.93;;;3.42;;
39400;SDS011;54391;50.000;7.360;2023-08-24T05:03:03;7.43;;;3.67;;
39400;SDS011;54391;50.000;7.360;2023-08-24T05:05:31;6.43;;;3.70;;
39400;SDS011;54391;50.000;7.360;2023-08-24T05:07:59;7.05;;;4.10;;
39400;SDS011;54391;50.000;7.360;2023-08-24T05:10:31;5.75;;;3.47;;
39400;SDS011;54391;50.000;7.360;2023-08-24T05:12:59;5.88;;;3.80;;
39400;SDS011;54391;50.000;7.360;2023-08-24T05:15:26;8.35;;;3.85;;
39400;SDS011;54391;50.000;7.360;2023-08-24T05:17:54;5.93;;;3.92;;
39400;SDS011;54391;50.000;7.360;2023-08-24T05:20:21;5.55;;;3.63;;
39400;SDS011;54391;50.000;7.360;2023-08-24T05:22:49;7.97;;;4.10;;
39400;SDS011;54391;50.000;7.360;2023-08-24T05:25:16;7.18;;;3.97;;
39400;SDS011;54391;50.000;7.360;2023-08-24T05:27:45;8.10;;;4.60;;
39400;SDS011;54391;50.000;7.360;2023-08-24T05:30:12;5.55;;;3.85;;
39400;SDS011;54391;50.000;7.360;2023-08-24T05:32:40;10.77;;;4.28;;
39400;SDS011;54391;50.000;7.360;2023-08-24T05:35:08;6.53;;;3.70;;
39400;SDS011;54391;50.000;7.360;2023-08-24T05:37:35;9.30;;;4.20;;
39400;SDS011;54391;50.000;7.360;2023-08-24T05:40:04;7.35;;;3.90;;
39400;SDS011;54391;50.000;7.360;2023-08-24T05:42:32;11.60;;;4.47;;
39400;SDS011;54391;50.000;7.360;2023-08-24T05:45:03;5.78;;;4.10;;
39400;SDS011;54391;50.000;7.360;2023-08-24T05:47:31;5.90;;;4.40;;
39400;SDS011;54391;50.000;7.360;2023-08-24T05:49:58;7.43;;;4.28;;
39400;SDS011;54391;50.000;7.360;2023-08-24T05:52:25;7.18;;;4.50;;
39400;SDS011;54391;50.000;7.360;2023-08-24T05:54:53;7.68;;;3.65;;
39400;SDS011;54391;50.000;7.360;2023-08-24T05:57:20;6.95;;;4.00;;
39400;SDS011;54391;50.000;7.360;2023-08-24T05:59:47;7.60;;;4.03;;
39400;SDS011;54391;50.000;7.360;2023-08-24T06:02:16;9.32;;;4.30;;
39400;SDS011;54391;50.000;7.360;2023-08-24T06:04:43;6.90;;;4.15;;
39400;SDS011;54391;50.000;7.360;2023-08-24T06:07:10;5.13;;;3.30;;
39400;SDS011;54391;50.000;7.360;2023-08-24T06:09:37;7.90;;;3.50;;
39400;SDS011;54391;50.000;7.360;2023-08-24T06:12:05;6.22;;;3.90;;
39400;SDS011;54391;50.000;7.360;2023-08-24T06:14:33;6.80;;;3.60;;
39400;SDS011;54391;50.000;7.360;2023-08-24T06:17:00;8.52;;;3.53;;
39400;SDS011;54391;50.000;7.360;2023-08-24T06:19:30;5.45;;;3.50;;
39400;SDS011;54391;50.000;7.360;2023-08-24T06:21:57;5.63;;;4.07;;
39400;SDS011;54391;50.000;7.360;2023-08-24T06:24:24;8.07;;;3.75;;
39400;SDS011;54391;50.000;7.360;2023-08-24T06:26:51;8.93;;;4.00;;
39400;SDS011;54391;50.000;7.360;2023-08-24T06:29:19;7.57;;;4.28;;
39400;SDS011;54391;50.000;7.360;2023-08-24T06:31:46;5.85;;;4.00;;
39400;SDS011;54391;50.000;7.360;2023-08-24T06:34:13;5.78;;;3.97;;
39400;SDS011;54391;50.000;7.360;2023-08-24T06:36:41;8.65;;;4.38;;
39400;SDS011;54391;50.000;7.360;2023-08-24T06:39:09;6.50;;;4.53;;
39400;SDS011;54391;50.000;7.360;2023-08-24T06:41:36;7.80;;;4.68;;
39400;SDS011;54391;50.000;7.360;2023-08-24T06:44:06;10.18;;;4.25;;
39400;SDS011;54391;50.000;7.360;2023-08-24T06:46:33;7.15;;;4.43;;
39400;SDS011;54391;50.000;7.360;2023-08-24T06:49:01;8.35;;;4.97;;
39400;SDS011;54391;50.000;7.360;2023-08-24T06:51:28;7.45;;;4.32;;
39400;SDS011;54391;50.000;7.360;2023-08-24T06:53:57;8.07;;;4.32;;
39400;SDS011;54391;50.000;7.360;2023-08-24T06:56:27;10.70;;;4.80;;
39400;SDS011;54391;50.000;7.360;2023-08-24T06:58:55;8.18;;;4.50;;
39400;SDS011;54391;50.000;7.360;2023-08-24T07:01:22;7.78;;;4.78;;
39400;SDS011;54391;50.000;7.360;2023-08-24T07:03:51;9.52;;;4.63;;
39400;SDS011;54391;50.000;7.360;2023-08-24T07:06:18;5.68;;;3.80;;
39400;SDS011;54391;50.000;7.360;2023-08-24T07:08:45;7.75;;;4.07;;
39400;SDS011;54391;50.000;7.360;2023-08-24T07:11:14;6.13;;;3.78;;
39400;SDS011;54391;50.000;7.360;2023-08-24T07:13:42;5.55;;;3.75;;
39400;SDS011;54391;50.000;7.360;2023-08-24T07:16:10;6.80;;;4.43;;
39400;SDS011;54391;50.000;7.360;2023-08-24T07:18:37;7.25;;;4.55;;
39400;SDS011;54391;50.000;7.360;2023-08-24T07:21:05;4.72;;;3.67;;
39400;SDS011;54391;50.000;7.360;2023-08-24T07:23:32;8.13;;;4.30;;
39400;SDS011;54391;50.000;7.360;2023-08-24T07:25:59;7.40;;;4.10;;
39400;SDS011;54391;50.000;7.360;2023-08-24T07:28:28;5.63;;;4.25;;
39400;SDS011;54391;50.000;7.360;2023-08-24T07:30:55;6.32;;;4.30;;
39400;SDS011;54391;50.000;7.360;2023-08-24T07:33:22;6.53;;;4.55;;
39400;SDS011;54391;50.000;7.360;2023-08-24T07:35:50;6.13;;;4.53;;
39400;SDS011;54391;50.000;7.360;2023-08-24T07:38:17;7.03;;;4.78;;
39400;SDS011;54391;50.000;7.360;2023-08-24T07:40:45;9.32;;;4.47;;
39400;SDS011;54391;50.000;7.360;2023-08-24T07:43:12;7.40;;;4.70;;
39400;SDS011;54391;50.000;7.360;2023-08-24T07:45:41;9.48;;;5.00;;
39400;SDS011;54391;50.000;7.360;2023-08-24T07:48:08;6.20;;;4.85;;
39400;SDS011;54391;50.000;7.360;2023-08-24T07:50:36;6.63;;;4.53;;
39400;SDS011;54391;50.000;7.360;2023-08-24T07:53:03;8.07;;;4.88;;
39400;SDS011;54391;50.000;7.360;2023-08-24T07:55:31;6.72;;;4.60;;
39400;SDS011;54391;50.000;7.360;2023-08-24T07:57:58;8.02;;;5.18;;
39400;SDS011;54391;50.000;7.360;2023-08-24T08:00:25;7.30;;;4.45;;
39400;SDS011;54391;50.000;7.360;2023-08-24T08:02:54;7.00;;;4.90;;
39400;SDS011;54391;50.000;7.360;2023-08-24T08:05:21;11.40;;;5.10;;
39400;SDS011;54391;50.000;7.360;2023-08-24T08:07:49;10.68;;;4.40;;
39400;SDS011;54391;50.000;7.360;2023-08-24T08:10:16;6.47;;;4.78;;
39400;SDS011;54391;50.000;7.360;2023-08-24T08:12:45;7.45;;;5.22;;
39400;SDS011;54391;50.000;7.360;2023-08-24T08:15:12;7.00;;;4.63;;
39400;SDS011;54391;50.000;7.360;2023-08-24T08:17:40;6.93;;;5.18;;
39400;SDS011;54391;50.000;7.360;2023-08-24T08:20:09;6.78;;;4.90;;
39400;SDS011;54391;50.000;7.360;2023-08-24T08:22:37;9.43;;;5.22;;
39400;SDS011;54391;50.000;7.360;2023-08-24T08:25:05;8.75;;;5.25;;
39400;SDS011;54391;50.000;7.360;2023-08-24T08:27:33;6.65;;;5.32;;
39400;SDS011;54391;50.000;7.360;2023-08-24T08:30:00;9.75;;;5.60;;
39400;SDS011;54391;50.000;7.360;2023-08-24T08:32:28;5.60;;;4.75;;
39400;SDS011;54391;50.000;7.360;2023-08-24T08:34:55;6.30;;;4.93;;
39400;SDS011;54391;50.000;7.360;2023-08-24T08:37:26;8.23;;;5.30;;
39400;SDS011;54391;50.000;7.360;2023-08-24T08:39:54;7.28;;;4.70;;
39400;SDS011;54391;50.000;7.360;2023-08-24T08:42:21;8.02;;;5.43;;
39400;SDS011;54391;50.000;7.360;2023-08-24T08:44:48;7.20;;;5.00;;
39400;SDS011;54391;50.000;7.360;2023-08-24T08:47:16;7.55;;;5.47;;
39400;SDS011;54391;50.000;7.360;2023-08-24T08:49:44;7.15;;;5.05;;
39400;SDS011;54391;50.000;7.360;2023-08-24T08:52:14;8.73;;;5.28;;
39400;SDS011;54391;50.000;7.360;2023-08-24T08:54:42;7.15;;;4.63;;
39400;SDS011;54391;50.000;7.360;2023-08-24T08:57:09;6.10;;;4.13;;
39400;SDS011;54391;50.000;7.360;2023-08-24T08:59:37;4.95;;;4.00;;
39400;SDS011;54391;50.000;7.360;2023-08-24T09:02:05;6.47;;;4.25;;
39400;SDS011;54391;50.000;7.360;2023-08-24T09:04:34;6.72;;;4.10;;
39400;SDS011;54391;50.000;7.360;2023-08-24T09:07:02;6.25;;;4.13;;
39400;SDS011;54391;50.000;7.360;2023-08-24T09:09:35;7.88;;;4.00;;
39400;SDS011;54391;50.000;7.360;2023-08-24T09:12:06;6.22;;;3.92;;
39400;SDS011;54391;50.000;7.360;2023-08-24T09:14:34;6.40;;;3.65;;
39400;SDS011;54391;50.000;7.360;2023-08-24T09:17:01;4.55;;;3.60;;
39400;SDS011;54391;50.000;7.360;2023-08-24T09:19:30;4.30;;;3.15;;
39400;SDS011;54391;50.000;7.360;2023-08-24T09:21:57;6.22;;;3.70;;
39400;SDS011;54391;50.000;7.360;2023-08-24T09:24:29;5.68;;;3.65;;
39400;SDS011;54391;50.000;7.360;2023-08-24T09:26:57;7.00;;;3.38;;
39400;SDS011;54391;50.000;7.360;2023-08-24T09:29:26;8.57;;;3.53;;
39400;SDS011;54391;50.000;7.360;2023-08-24T09:31:54;7.75;;;3.70;;
39400;SDS011;54391;50.000;7.360;2023-08-24T09:34:22;4.65;;;2.97;;
39400;SDS011;54391;50.000;7.360;2023-08-24T09:36:53;4.15;;;2.97;;
39400;SDS011;54391;50.000;7.360;2023-08-24T09:39:20;6.25;;;3.25;;
39400;SDS011;54391;50.000;7.360;2023-08-24T09:41:48;4.45;;;2.60;;
39400;SDS011;54391;50.000;7.360;2023-08-24T09:44:16;5.65;;;2.78;;
39400;SDS011;54391;50.000;7.360;2023-08-24T09:46:45;4.05;;;2.72;;
39400;SDS011;54391;50.000;7.360;2023-08-24T09:49:12;3.88;;;2.25;;
39400;SDS011;54391;50.000;7.360;2023-08-24T09:51:40;7.07;;;2.92;;
39400;SDS011;54391;50.000;7.360;2023-08-24T09:54:09;4.47;;;2.78;;
39400;SDS011;54391;50.000;7.360;2023-08-24T09:56:38;5.75;;;2.95;;
39400;SDS011;54391;50.000;7.360;2023-08-24T09:59:13;5.38;;;2.65;;
39400;SDS011;54391;50.000;7.360;2023-08-24T10:01:45;3.85;;;2.65;;
39400;SDS011;54391;50.000;7.360;2023-08-24T10:04:17;6.28;;;3.00;;
39400;SDS011;54391;50.000;7.360;2023-08-24T10:06:48;4.68;;;3.13;;
39400;SDS011;54391;50.000;7.360;2023-08-24T10:09:19;5.60;;;3.00;;
39400;SDS011;54391;50.000;7.360;2023-08-24T10:11:49;4.88;;;3.20;;
39400;SDS011;54391;50.000;7.360;2023-08-24T10:14:24;4.50;;;3.03;;
39400;SDS011;54391;50.000;7.360;2023-08-24T10:16:58;5.90;;;3.22;;
39400;SDS011;54391;50.000;7.360;2023-08-24T10:19:26;6.00;;;3.05;;
39400;SDS011;54391;50.000;7.360;2023-08-24T10:21:55;4.75;;;3.00;;
39400;SDS011;54391;50.000;7.360;2023-08-24T10:24:26;3.70;;;3.00;;
39400;SDS011;54391;50.000;7.360;2023-08-24T10:26:53;5.28;;;2.83;;
39400;SDS011;54391;50.000;7.360;2023-08-24T10:29:21;4.82;;;3.28;;
39400;SDS011;54391;50.000;7.360;2023-08-24T10:31:49;6.43;;;3.15;;
39400;SDS011;54391;50.000;7.360;2023-08-24T10:34:19;6.32;;;3.47;;
39400;SDS011;54391;50.000;7.360;2023-08-24T10:36:47;4.30;;;3.22;;
39400;SDS011;54391;50.000;7.360;2023-08-24T10:39:15;5.40;;;3.28;;
39400;SDS011;54391;50.000;7.360;2023-08-24T10:41:52;6.22;;;3.42;;
39400;SDS011;54391;50.000;7.360;2023-08-24T10:44:20;4.43;;;3.13;;
39400;SDS011;54391;50.000;7.360;2023-08-24T10:49:40;6.25;;;3.42;;
39400;SDS011;54391;50.000;7.360;2023-08-24T10:52:16;6.65;;;3.60;;
39400;SDS011;54391;50.000;7.360;2023-08-24T10:54:47;6.43;;;3.65;;
39400;SDS011;54391;50.000;7.360;2023-08-24T10:57:19;7.45;;;3.42;;
39400;SDS011;54391;50.000;7.360;2023-08-24T10:59:57;6.13;;;3.28;;
39400;SDS011;54391;50.000;7.360;2023-08-24T11:02:25;7.15;;;3.65;;
39400;SDS011;54391;50.000;7.360;2023-08-24T11:05:07;4.80;;;3.28;;
39400;SDS011;54391;50.000;7.360;2023-08-24T11:07:47;5.18;;;3.50;;
39400;SDS011;54391;50.000;7.360;2023-08-24T11:10:16;6.63;;;3.50;;
39400;SDS011;54391;50.000;7.360;2023-08-24T11:13:04;7.45;;;3.67;;
39400;SDS011;54391;50.000;7.360;2023-08-24T11:15:39;5.97;;;3.67;;
39400;SDS011;54391;50.000;7.360;2023-08-24T11:18:14;6.60;;;3.78;;
39400;SDS011;54391;50.000;7.360;2023-08-24T11:20:51;4.70;;;3.88;;
39400;SDS011;54391;50.000;7.360;2023-08-24T11:23:20;9.23;;;3.78;;
39400;SDS011;54391;50.000;7.360;2023-08-24T11:25:48;4.72;;;3.67;;
39400;SDS011;54391;50.000;7.360;2023-08-24T11:28:20;5.05;;;4.03;;
39400;SDS011;54391;50.000;7.360;2023-08-24T11:30:47;6.80;;;3.85;;
39400;SDS011;54391;50.000;7.360;2023-08-24T11:33:16;5.72;;;4.30;;
39400;SDS011;54391;50.000;7.360;2023-08-24T11:35:44;6.35;;;4.00;;
39400;SDS011;54391;50.000;7.360;2023-08-24T11:38:14;6.82;;;4.20;;
39400;SDS011;54391;50.000;7.360;2023-08-24T11:40:41;7.03;;;4.13;;
39400;SDS011;54391;50.000;7.360;2023-08-24T11:43:08;8.90;;;4.70;;
39400;SDS011;54391;50.000;7.360;2023-08-24T11:45:36;7.45;;;4.20;;
39400;SDS011;54391;50.000;7.360;2023-08-24T11:48:06;8.32;;;3.88;;
39400;SDS011;54391;50.000;7.360;2023-08-24T11:50:34;7.20;;;4.55;;
39400;SDS011;54391;50.000;7.360;2023-08-24T11:53:06;6.80;;;4.45;;
39400;SDS011;54391;50.000;7.360;2023-08-24T11:55:36;7.65;;;4.45;;
39400;SDS011;54391;50.000;7.360;2023-08-24T11:58:13;9.10;;;4.22;;
39400;SDS011;54391;50.000;7.360;2023-08-24T12:00:41;7.78;;;4.30;;
39400;SDS011;54391;50.000;7.360;2023-08-24T12:03:09;7.00;;;4.13;;
39400;SDS011;54391;50.000;7.360;2023-08-24T12:05:36;8.30;;;4.38;;
39400;SDS011;54391;50.000;7.360;2023-08-24T12:08:03;8.50;;;4.45;;
39400;SDS011;54391;50.000;7.360;2023-08-24T12:10:31;8.00;;;4.20;;
39400;SDS011;54391;50.000;7.360;2023-08-24T12:13:03;6.90;;;4.20;;
39400;SDS011;54391;50.000;7.360;2023-08-24T12:15:33;5.43;;;4.57;;
39400;SDS011;54391;50.000;7.360;2023-08-24T12:18:06;5.82;;;4.10;;
39400;SDS011;54391;50.000;7.360;2023-08-24T12:20:34;8.52;;;4.57;;
39400;SDS011;54391;50.000;7.360;2023-08-24T12:23:02;8.38;;;4.85;;
39400;SDS011;54391;50.000;7.360;2023-08-24T12:25:29;7.68;;;4.55;;
39400;SDS011;54391;50.000;7.360;2023-08-24T12:28:11;6.75;;;4.45;;
39400;SDS011;54391;50.000;7.360;2023-08-24T12:30:46;11.13;;;4.85;;
39400;SDS011;54391;50.000;7.360;2023-08-24T12:33:23;7.72;;;5.47;;
39400;SDS011;54391;50.000;7.360;2023-08-24T12:35:52;10.90;;;5.70;;
39400;SDS011;54391;50.000;7.360;2023-08-24T12:38:20;8.85;;;5.28;;
39400;SDS011;54391;50.000;7.360;2023-08-24T12:40:47;9.23;;;6.00;;
39400;SDS011;54391;50.000;7.360;2023-08-24T12:43:16;9.90;;;5.45;;
39400;SDS011;54391;50.000;7.360;2023-08-24T12:45:43;7.93;;;5.00;;
39400;SDS011;54391;50.000;7.360;2023-08-24T12:48:11;6.82;;;4.55;;
39400;SDS011;54391;50.000;7.360;2023-08-24T12:50:38;7.57;;;4.32;;
39400;SDS011;54391;50.000;7.360;2023-08-24T12:53:06;5.03;;;4.53;;
39400;SDS011;54391;50.000;7.360;2023-08-24T12:55:33;7.32;;;4.88;;
39400;SDS011;54391;50.000;7.360;2023-08-24T12:58:01;8.20;;;5.03;;
39400;SDS011;54391;50.000;7.360;2023-08-24T13:00:31;6.75;;;4.82;;
39400;SDS011;54391;50.000;7.360;2023-08-24T13:02:58;6.32;;;4.53;;
39400;SDS011;54391;50.000;7.360;2023-08-24T13:05:25;6.90;;;4.53;;
39400;SDS011;54391;50.000;7.360;2023-08-24T13:07:53;5.32;;;4.03;;
39400;SDS011;54391;50.000;7.360;2023-08-24T13:10:21;5.35;;;4.10;;
39400;SDS011;54391;50.000;7.360;2023-08-24T13:12:50;7.35;;;4.60;;
39400;SDS011;54391;50.000;7.360;2023-08-24T13:15:17;6.40;;;4.43;;
39400;SDS011;54391;50.000;7.360;2023-08-24T13:17:47;8.18;;;4.93;;
39400;SDS011;54391;50.000;7.360;2023-08-24T13:20:15;7.45;;;4.30;;
39400;SDS011;54391;50.000;7.360;2023-08-24T13:22:45;8.25;;;4.50;;
39400;SDS011;54391;50.000;7.360;2023-08-24T13:25:13;5.78;;;4.50;;
39400;SDS011;54391;50.000;7.360;2023-08-24T13:27:40;11.00;;;4.97;;
39400;SDS011;54391;50.000;7.360;2023-08-24T13:30:07;6.53;;;4.68;;
39400;SDS011;54391;50.000;7.360;2023-08-24T13:32:35;7.20;;;4.80;;
39400;SDS011;54391;50.000;7.360;2023-08-24T13:35:03;6.15;;;4.53;;
39400;SDS011;54391;50.000;7.360;2023-08-24T13:37:31;7.75;;;4.50;;
39400;SDS011;54391;50.000;7.360;2023-08-24T13:39:59;5.43;;;3.97;;
39400;SDS011;54391;50.000;7.360;2023-08-24T13:42:26;6.70;;;3.53;;
39400;SDS011;54391;50.000;7.360;2023-08-24T13:44:54;8.02;;;4.15;;
39400;SDS011;54391;50.000;7.360;2023-08-24T13:47:21;6.68;;;4.35;;
39400;SDS011;54391;50.000;7.360;2023-08-24T13:49:48;8.75;;;4.05;;
39400;SDS011;54391;50.000;7.360;2023-08-24T13:52:17;9.07;;;4.45;;
39400;SDS011;54391;50.000;7.360;2023-08-24T13:54:44;5.90;;;3.90;;
39400;SDS011;54391;50.000;7.360;2023-08-24T13:57:12;6.13;;;4.10;;
39400;SDS011;54391;50.000;7.360;2023-08-24T13:59:39;6.80;;;4.07;;
39400;SDS011;54391;50.000;7.360;2023-08-24T14:02:06;9.23;;;4.18;;
39400;SDS011;54391;50.000;7.360;2023-08-24T14:04:34;6.38;;;4.47;;
39400;SDS011;54391;50.000;7.360;2023-08-24T14:07:01;5.55;;;3.78;;
39400;SDS011;54391;50.000;7.360;2023-08-24T14:09:29;8.15;;;4.00;;
39400;SDS011;54391;50.000;7.360;2023-08-24T14:11:58;4.85;;;3.65;;
39400;SDS011;54391;50.000;7.360;2023-08-24T14:14:25;9.77;;;4.32;;
39400;SDS011;54391;50.000;7.360;2023-08-24T14:16:55;6.38;;;4.32;;
39400;SDS011;54391;50.000;7.360;2023-08-24T14:19:23;11.45;;;5.63;;
39400;SDS011;54391;50.000;7.360;2023-08-24T14:21:51;6.43;;;4.70;;
39400;SDS011;54391;50.000;7.360;2023-08-24T14:24:19;7.45;;;4.90;;
39400;SDS011;54391;50.000;7.360;2023-08-24T14:26:48;6.10;;;4.68;;
39400;SDS011;54391;50.000;7.360;2023-08-24T14:29:15;5.72;;;4.13;;
39400;SDS011;54391;50.000;7.360;2023-08-24T14:31:43;6.55;;;4.50;;
39400;SDS011;54391;50.000;7.360;2023-08-24T14:34:10;7.90;;;4.45;;
39400;SDS011;54391;50.000;7.360;2023-08-24T14:36:37;8.88;;;4.65;;
39400;SDS011;54391;50.000;7.360;2023-08-24T14:39:04;6.80;;;3.92;;
39400;SDS011;54391;50.000;7.360;2023-08-24T14:41:32;5.93;;;4.13;;
39400;SDS011;54391;50.000;7.360;2023-08-24T14:44:01;7.55;;;4.28;;
39400;SDS011;54391;50.000;7.360;2023-08-24T14:46:28;6.63;;;4.32;;
39400;SDS011;54391;50.000;7.360;2023-08-24T14:48:55;8.13;;;4.45;;
39400;SDS011;54391;50.000;7.360;2023-08-24T14:51:23;6.57;;;4.13;;
39400;SDS011;54391;50.000;7.360;2023-08-24T14:53:50;5.25;;;3.95;;
39400;SDS011;54391;50.000;7.360;2023-08-24T14:56:17;5.65;;;4.25;;
39400;SDS011;54391;50.000;7.360;2023-08-24T14:58:44;8.95;;;4.85;;